Terminal Aerodrome Forecast
Issued by NWS

Home | Current Version | Previous Version | Text Only | Print | Product List | Glossary On
Versions: 1 2 3 4 5 6 7 8 9 10 11 12 13 14 15 16 17 18 19
000
FTUS44 KCRP 010500
TAFLRD
TAF
KLRD 010531Z 0106/0206 35006KT 2SM -DZ BR OVC004
     FM010800 36004KT 1SM -DZ BR OVC003
     FM011800 34005KT P6SM OVC008
     FM012100 03004KT P6SM OVC015
     FM020300 04005KT 5SM BR OVC005=

USA.gov is the U.S. government's official web portal to all federal, state and local government web resources and services.